Time;durP1;ratioP1;P1;durP2;ratioP2;P2;SDS_P1;SDS_P2;PMS_P1;PMS_P2;Temp;Humidity;BMP_temperature;BMP_pressure;BME280_temperature;BME280_humidity;BME280_pressure;Samples;Min_cycle;Max_cycle;Signal;HPM_P1;HPM_P2
2023/04/12 00:01:00;;;;;;;6.45;2.00;;;;;;;11.22;66.55;100463.13;5066174;28;20784;-65
2023/04/12 00:03:25;;;;;;;6.45;2.13;;;;;;;11.17;66.60;100454.78;5067732;28;20040;-65
2023/04/12 00:05:53;;;;;;;8.77;2.25;;;;;;;11.11;66.72;100436.38;5059832;28;20112;-65
2023/04/12 00:08:25;;;;;;;6.30;2.20;;;;;;;11.06;67.00;100437.19;5057739;28;20043;-65
2023/04/12 00:10:50;;;;;;;5.07;1.65;;;;;;;11.01;66.76;100426.88;5064802;28;20025;-65
2023/04/12 00:13:16;;;;;;;8.73;2.15;;;;;;;11.04;66.74;100420.81;5068188;28;20762;-64
2023/04/12 00:15:41;;;;;;;10.02;2.22;;;;;;;11.04;66.71;100409.69;5083582;28;20024;-65
2023/04/12 00:18:07;;;;;;;6.05;2.08;;;;;;;11.02;67.30;100408.28;5089639;28;20034;-65
2023/04/12 00:20:32;;;;;;;3.83;1.70;;;;;;;11.07;67.19;100414.69;5090724;28;20073;-65
2023/04/12 00:22:57;;;;;;;5.03;1.65;;;;;;;11.13;66.66;100406.41;5078089;28;20105;-65
2023/04/12 00:25:22;;;;;;;4.75;1.83;;;;;;;11.14;66.86;100388.63;5072689;28;20055;-65
2023/04/12 00:27:47;;;;;;;6.82;1.77;;;;;;;11.08;66.77;100379.41;5074475;28;20041;-65
2023/04/12 00:30:13;;;;;;;8.98;2.00;;;;;;;11.05;66.91;100360.53;5075040;28;20098;-65
2023/04/12 00:32:38;;;;;;;4.63;1.90;;;;;;;11.04;66.93;100359.69;5089178;28;20024;-65
2023/04/12 00:35:04;;;;;;;5.55;1.67;;;;;;;11.03;67.62;100354.41;5090437;28;20549;-65
2023/04/12 00:37:29;;;;;;;5.22;2.17;;;;;;;11.05;67.27;100353.03;5074665;28;20040;-65
2023/04/12 00:39:54;;;;;;;6.38;2.15;;;;;;;11.03;67.03;100346.91;5090167;28;20070;-66
2023/04/12 00:42:20;;;;;;;5.15;1.77;;;;;;;11.02;67.51;100330.50;5073705;28;20056;-65
2023/04/12 00:44:45;;;;;;;5.88;2.10;;;;;;;10.96;67.11;100323.25;5070840;28;20024;-65
2023/04/12 00:47:10;;;;;;;6.65;2.20;;;;;;;10.97;67.85;100325.78;5071170;28;20082;-65
2023/04/12 00:49:36;;;;;;;6.20;2.00;;;;;;;10.94;67.75;100314.38;5077088;28;20024;-65
2023/04/12 00:52:07;;;;;;;5.40;1.80;;;;;;;10.96;67.76;100323.25;5073625;28;20081;-65
2023/04/12 00:54:33;;;;;;;4.95;1.90;;;;;;;10.93;68.00;100310.75;5070189;28;20036;-65
2023/04/12 00:56:59;;;;;;;5.88;1.70;;;;;;;10.92;68.42;100295.19;5071056;28;20112;-65
2023/04/12 00:59:25;;;;;;;5.70;1.92;;;;;;;10.95;67.57;100294.66;5070980;28;20028;-65
2023/04/12 01:01:51;;;;;;;3.65;1.70;;;;;;;10.95;67.80;100280.75;5080149;28;20024;-65
2023/04/12 01:04:17;;;;;;;4.55;1.83;;;;;;;10.93;67.65;100271.88;5085011;28;20031;-65
2023/04/12 01:07:14;;;;;;;4.20;1.80;;;;;;;10.94;67.24;100269.94;5080555;28;20040;-65
2023/04/12 01:10:07;;;;;;;7.72;1.95;;;;;;;10.91;68.06;100248.25;5079919;28;20103;-65
2023/04/12 01:12:38;;;;;;;7.07;2.00;;;;;;;10.90;68.12;100252.97;5058606;28;20682;-65
2023/04/12 01:15:08;;;;;;;5.10;2.28;;;;;;;10.85;67.99;100244.63;5051819;28;20041;-65
2023/04/12 01:17:42;;;;;;;10.32;2.33;;;;;;;10.87;68.18;100220.19;5060218;28;20072;-65
2023/04/12 01:20:15;;;;;;;4.78;1.70;;;;;;;10.82;68.31;100217.41;5071001;28;20029;-65
2023/04/12 01:23:07;;;;;;;4.95;1.92;;;;;;;10.86;68.15;100209.38;5062920;28;20376;-65
2023/04/12 01:25:42;;;;;;;7.32;2.30;;;;;;;10.85;67.81;100204.94;5054100;28;20060;-65
2023/04/12 01:28:11;;;;;;;6.75;2.20;;;;;;;10.84;68.14;100208.78;5050303;28;20052;-65
2023/04/12 01:30:38;;;;;;;5.20;1.90;;;;;;;10.83;67.77;100182.97;5053894;28;20484;-65
2023/04/12 01:33:06;;;;;;;5.50;2.15;;;;;;;10.79;68.19;100184.63;5052658;28;20031;-65
2023/04/12 01:35:31;;;;;;;6.68;2.13;;;;;;;10.77;68.11;100182.13;5070483;28;20020;-65
2023/04/12 01:37:58;;;;;;;4.63;2.38;;;;;;;10.71;68.31;100169.31;5063266;28;20372;-65
2023/04/12 01:40:26;;;;;;;6.30;1.92;;;;;;;10.75;68.32;100155.75;5055516;28;20385;-65
2023/04/12 01:43:02;;;;;;;5.75;2.20;;;;;;;10.61;69.16;100144.31;5050292;28;20520;-65
2023/04/12 01:45:27;;;;;;;5.88;2.10;;;;;;;10.69;68.58;100145.72;5050814;28;20028;-65
2023/04/12 01:47:53;;;;;;;6.80;2.30;;;;;;;10.71;68.81;100143.50;5057167;28;20029;-64
2023/04/12 01:50:58;;;;;;;7.72;2.05;;;;;;;10.68;68.30;100144.03;5049074;28;20036;-65
2023/04/12 01:53:43;;;;;;;3.90;1.70;;;;;;;10.65;68.46;100142.66;5041494;28;20177;-65
2023/04/12 01:56:10;;;;;;;7.35;2.10;;;;;;;10.59;68.86;100135.41;5058683;28;20044;-65
2023/04/12 01:58:38;;;;;;;6.97;2.30;;;;;;;10.61;68.70;100124.91;5065705;28;20436;-65
2023/04/12 02:01:04;;;;;;;4.78;2.00;;;;;;;10.54;68.76;100102.94;5067948;28;20028;-65
2023/04/12 02:03:30;;;;;;;4.65;1.70;;;;;;;10.54;69.21;100099.31;5067443;28;20082;-65
2023/04/12 02:05:57;;;;;;;6.57;2.00;;;;;;;10.63;68.70;100091.31;5070107;28;20029;-65
2023/04/12 02:08:23;;;;;;;4.15;1.73;;;;;;;10.59;68.40;100084.63;5063638;28;20037;-65
2023/04/12 02:10:48;;;;;;;5.88;2.20;;;;;;;10.62;68.88;100087.69;5065841;28;20044;-65
2023/04/12 02:13:14;;;;;;;4.38;2.08;;;;;;;10.57;68.82;100063.53;5086079;28;20048;-66
2023/04/12 02:15:39;;;;;;;3.97;1.85;;;;;;;10.56;68.59;100069.34;5087744;28;20020;-65
2023/04/12 02:18:04;;;;;;;5.03;1.80;;;;;;;10.56;68.81;100067.41;5082368;28;20044;-65
2023/04/12 02:20:30;;;;;;;4.00;1.70;;;;;;;10.53;68.51;100059.66;5081590;28;20035;-65
2023/04/12 02:22:55;;;;;;;5.60;2.08;;;;;;;10.52;69.14;100044.09;5091377;28;20111;-65
2023/04/12 02:25:20;;;;;;;5.28;1.80;;;;;;;10.50;68.56;100037.16;5080449;28;20020;-65
2023/04/12 02:27:47;;;;;;;4.70;1.92;;;;;;;10.50;68.90;100037.16;5087725;28;20032;-65
2023/04/12 02:30:13;;;;;;;6.95;2.10;;;;;;;10.53;69.25;100025.50;5084721;28;20115;-65
2023/04/12 02:32:45;;;;;;;5.93;2.08;;;;;;;10.48;69.08;100034.63;5082124;28;20112;-65
2023/04/12 02:35:11;;;;;;;6.00;1.85;;;;;;;10.45;69.17;100017.69;5078837;28;20044;-65
2023/04/12 02:37:37;;;;;;;5.18;1.88;;;;;;;10.46;69.08;100008.28;5074165;28;20032;-64
2023/04/12 02:40:05;;;;;;;4.82;1.67;;;;;;;10.40;69.65;99988.00;5090957;28;20047;-64
2023/04/12 02:42:31;;;;;;;2.75;1.60;;;;;;;10.44;68.99;99997.44;5093642;28;20036;-65
2023/04/12 02:44:56;;;;;;;4.47;1.70;;;;;;;10.42;69.08;99980.25;5082009;28;20073;-64
2023/04/12 02:47:21;;;;;;;2.88;1.60;;;;;;;10.37;69.20;99974.69;5087229;28;20025;-65
2023/04/12 02:49:46;;;;;;;4.95;1.55;;;;;;;10.38;68.85;99984.69;5071454;28;20170;-65
2023/04/12 02:52:12;;;;;;;5.13;1.80;;;;;;;10.42;68.96;99966.38;5074714;28;20367;-65
2023/04/12 02:54:37;;;;;;;3.03;1.60;;;;;;;10.38;68.88;99962.50;5084134;28;20039;-65
2023/04/12 02:57:03;;;;;;;3.53;1.80;;;;;;;10.32;69.14;99944.16;5092875;28;20108;-64
2023/04/12 02:59:28;;;;;;;3.22;1.38;;;;;;;10.30;69.59;99936.13;5086282;28;20120;-65
2023/04/12 03:01:54;;;;;;;3.38;1.73;;;;;;;10.32;69.77;99931.13;5083730;28;20056;-65
2023/04/12 03:04:21;;;;;;;5.45;1.67;;;;;;;10.28;69.13;99930.00;5088181;28;20031;-65
2023/04/12 03:06:52;;;;;;;2.78;1.30;;;;;;;10.21;69.89;99926.63;5091973;28;20032;-65
2023/04/12 03:09:19;;;;;;;5.57;1.97;;;;;;;10.24;69.84;99914.16;5092469;28;20031;-65
2023/04/12 03:11:45;;;;;;;4.68;1.70;;;;;;;10.21;70.53;99906.38;5092492;28;20048;-65
2023/04/12 03:14:11;;;;;;;3.33;1.50;;;;;;;10.26;69.81;99904.50;5092778;28;20785;-64
2023/04/12 03:16:36;;;;;;;5.28;1.40;;;;;;;10.26;69.97;99900.91;5077385;28;20037;-64
2023/04/12 03:19:02;;;;;;;3.13;1.40;;;;;;;10.31;70.28;99884.25;5072719;28;20037;-64
2023/04/12 03:21:27;;;;;;;4.07;1.67;;;;;;;10.25;70.09;99900.03;5078348;28;20027;-65
2023/04/12 03:23:53;;;;;;;5.38;1.60;;;;;;;10.24;70.18;99895.56;5089214;28;20027;-65
2023/04/12 03:26:19;;;;;;;3.05;1.50;;;;;;;10.25;70.75;99901.97;5087544;28;20028;-65
2023/04/12 03:28:47;;;;;;;2.58;1.42;;;;;;;10.27;70.12;99897.84;5092631;28;20031;-65
2023/04/12 03:31:12;;;;;;;4.05;1.60;;;;;;;10.24;70.81;99878.09;5091012;28;20036;-65
2023/04/12 03:33:38;;;;;;;2.47;1.40;;;;;;;10.26;70.65;99887.03;5088364;28;20039;-66
2023/04/12 03:36:04;;;;;;;2.63;1.27;;;;;;;10.24;70.98;99889.19;5071328;28;20035;-64
2023/04/12 03:38:30;;;;;;;3.33;1.40;;;;;;;10.12;71.47;99875.59;5082274;28;20369;-64
2023/04/12 03:40:55;;;;;;;3.50;1.30;;;;;;;10.09;71.49;99865.88;5084468;28;20038;-64
2023/04/12 03:43:21;;;;;;;5.07;1.55;;;;;;;10.11;71.82;99856.47;5091606;28;20061;-65
2023/04/12 03:45:46;;;;;;;3.08;1.50;;;;;;;10.13;71.63;99870.88;5083565;28;20024;-64
2023/04/12 03:48:11;;;;;;;2.75;1.33;;;;;;;10.18;71.37;99851.47;5088703;28;20027;-65
2023/04/12 03:50:43;;;;;;;3.13;1.50;;;;;;;10.19;71.68;99848.44;5074221;28;20024;-65
2023/04/12 03:53:12;;;;;;;3.30;1.50;;;;;;;10.23;71.65;99838.44;5070103;28;20387;-65
2023/04/12 03:55:37;;;;;;;1.65;1.30;;;;;;;10.16;71.32;99832.34;5075257;28;20665;-65
2023/04/12 03:58:03;;;;;;;2.25;1.50;;;;;;;10.15;71.68;99835.41;5072590;28;20039;-65
2023/04/12 04:00:30;;;;;;;4.25;1.42;;;;;;;10.04;71.91;99838.13;5076642;28;20063;-63
2023/04/12 04:03:02;;;;;;;3.45;1.42;;;;;;;10.08;72.12;99827.34;5082144;28;20073;-63
2023/04/12 04:05:29;;;;;;;3.03;1.30;;;;;;;10.00;72.51;99805.69;5078023;28;20035;-64
2023/04/12 04:07:55;;;;;;;2.17;1.10;;;;;;;9.98;72.72;99808.75;5083703;28;20436;-64
2023/04/12 04:10:20;;;;;;;3.60;1.33;;;;;;;10.02;72.75;99801.56;5079285;28;20137;-64
2023/04/12 04:12:45;;;;;;;3.47;1.48;;;;;;;10.04;72.45;99804.03;5073217;28;20147;-64
2023/04/12 04:15:13;;;;;;;3.63;1.35;;;;;;;10.02;72.87;99795.16;5090166;28;20024;-64
2023/04/12 04:17:38;;;;;;;3.47;1.70;;;;;;;10.03;72.93;99800.44;5084925;28;20654;-63
2023/04/12 04:20:04;;;;;;;1.95;1.30;;;;;;;9.96;72.91;99790.72;5082180;28;20028;-64
2023/04/12 04:22:31;;;;;;;2.70;1.45;;;;;;;9.95;73.12;99791.84;5072776;28;20017;-64
2023/04/12 04:24:57;;;;;;;2.72;1.42;;;;;;;9.95;73.16;99780.75;5077955;28;20093;-64
2023/04/12 04:27:22;;;;;;;3.65;1.42;;;;;;;9.93;73.28;99780.19;5089023;28;20479;-64
2023/04/12 04:29:49;;;;;;;1.95;1.20;;;;;;;9.96;73.01;99777.69;5086868;28;20063;-64
2023/04/12 04:32:15;;;;;;;3.15;1.50;;;;;;;9.90;73.24;99773.25;5070558;28;20051;-64
2023/04/12 04:34:40;;;;;;;4.88;1.30;;;;;;;9.83;73.94;99772.69;5073573;28;20028;-64
2023/04/12 04:37:06;;;;;;;4.20;1.60;;;;;;;9.91;73.78;99763.00;5089503;28;20089;-64
2023/04/12 04:39:31;;;;;;;2.50;1.25;;;;;;;9.93;73.76;99766.31;5077760;28;20031;-64
2023/04/12 04:41:57;;;;;;;3.17;1.73;;;;;;;9.94;73.48;99763.28;5089879;28;20127;-65
2023/04/12 04:44:24;;;;;;;4.88;1.50;;;;;;;9.90;74.03;99761.31;5078502;28;20029;-66
2023/04/12 04:46:50;;;;;;;4.88;1.80;;;;;;;9.92;74.15;99759.13;5077898;28;20032;-65
2023/04/12 04:49:15;;;;;;;4.07;1.60;;;;;;;9.95;74.05;99759.41;5091262;28;20024;-65
2023/04/12 04:51:41;;;;;;;3.92;1.85;;;;;;;9.90;74.19;99759.38;5073849;28;20365;-65
2023/04/12 04:54:06;;;;;;;3.63;1.65;;;;;;;9.92;74.26;99759.94;5070216;28;20060;-66
2023/04/12 04:56:31;;;;;;;2.78;1.58;;;;;;;9.92;74.37;99754.41;5079651;28;20027;-65
2023/04/12 04:58:56;;;;;;;3.47;1.77;;;;;;;9.94;74.16;99757.75;5078882;28;20482;-65
2023/04/12 05:01:26;;;;;;;2.75;1.60;;;;;;;9.89;74.70;99754.13;5066883;28;20073;-64
2023/04/12 05:03:54;;;;;;;3.17;1.45;;;;;;;9.92;74.27;99754.41;5073898;28;20111;-64
2023/04/12 05:06:20;;;;;;;3.45;1.80;;;;;;;9.93;74.38;99752.47;5072199;28;20033;-64
2023/04/12 05:08:45;;;;;;;2.80;1.60;;;;;;;9.91;74.62;99744.44;5075533;28;20141;-64
2023/04/12 05:11:10;;;;;;;4.78;1.50;;;;;;;9.95;74.47;99747.50;5075538;28;20054;-64
2023/04/12 05:13:36;;;;;;;2.47;1.55;;;;;;;9.93;74.76;99741.38;5079158;28;20040;-64
2023/04/12 05:16:06;;;;;;;2.80;1.70;;;;;;;9.92;74.66;99748.88;5074491;28;20033;-64
2023/04/12 05:18:32;;;;;;;4.03;1.70;;;;;;;9.86;75.36;99738.03;5079683;28;20032;-64
2023/04/12 05:21:01;;;;;;;4.55;1.80;;;;;;;9.88;75.12;99739.44;5085120;28;20527;-64
2023/04/12 05:23:26;;;;;;;2.47;1.40;;;;;;;9.93;75.27;99738.59;5080086;28;20023;-64
2023/04/12 05:25:52;;;;;;;3.00;1.63;;;;;;;9.98;75.10;99736.69;5076143;28;20040;-64
2023/04/12 05:28:17;;;;;;;2.58;1.50;;;;;;;10.03;74.84;99733.91;5071420;28;20468;-64
2023/04/12 05:30:43;;;;;;;2.08;1.83;;;;;;;10.03;75.17;99733.06;5079667;28;20111;-64
2023/04/12 05:33:09;;;;;;;3.20;1.58;;;;;;;10.03;74.93;99738.63;5083909;28;20024;-64
2023/04/12 05:35:35;;;;;;;2.58;1.63;;;;;;;10.08;75.17;99724.75;5084902;28;20100;-64
2023/04/12 05:38:00;;;;;;;2.60;1.70;;;;;;;10.07;74.65;99725.88;5070927;28;20086;-65
2023/04/12 05:40:25;;;;;;;3.83;1.70;;;;;;;9.98;75.30;99724.75;5086638;28;20031;-64
2023/04/12 05:42:51;;;;;;;2.72;1.60;;;;;;;10.02;75.22;99723.94;5073362;28;20032;-65
2023/04/12 05:45:16;;;;;;;4.78;2.00;;;;;;;10.00;75.36;99725.31;5080131;28;20025;-64
2023/04/12 05:47:41;;;;;;;4.95;1.80;;;;;;;9.98;75.11;99713.66;5092156;28;20600;-64
2023/04/12 05:50:07;;;;;;;5.22;1.88;;;;;;;9.90;75.86;99723.34;5080643;28;20028;-64
2023/04/12 05:52:32;;;;;;;3.70;1.90;;;;;;;9.97;76.14;99728.63;5080784;28;20024;-63
2023/04/12 05:54:58;;;;;;;3.17;1.58;;;;;;;9.98;75.88;99722.81;5078011;28;20360;-65
2023/04/12 05:57:23;;;;;;;3.17;1.60;;;;;;;9.95;75.90;99717.00;5079226;28;20464;-64
2023/04/12 05:59:49;;;;;;;2.55;1.60;;;;;;;9.95;76.21;99720.59;5085184;28;20028;-64
2023/04/12 06:02:14;;;;;;;2.40;1.50;;;;;;;9.95;75.99;99717.81;5089162;28;20024;-64
2023/04/12 06:04:39;;;;;;;2.75;1.50;;;;;;;9.98;76.24;99719.19;5090676;28;20020;-64
2023/04/12 06:07:05;;;;;;;2.58;1.50;;;;;;;10.00;75.86;99719.75;5081261;28;20028;-65
2023/04/12 06:09:31;;;;;;;2.10;1.63;;;;;;;10.03;75.79;99722.81;5078373;28;20043;-65
2023/04/12 06:11:56;;;;;;;3.75;2.00;;;;;;;10.02;76.15;99703.66;5083452;28;20040;-64
2023/04/12 06:14:21;;;;;;;1.85;1.70;;;;;;;10.01;76.15;99716.69;5077341;28;20082;-65
2023/04/12 06:16:46;;;;;;;4.65;2.70;;;;;;;10.00;76.47;99705.91;5081620;28;20037;-64
2023/04/12 06:19:12;;;;;;;3.03;2.30;;;;;;;10.03;76.21;99717.28;5079985;28;20044;-64
2023/04/12 06:21:37;;;;;;;3.42;3.13;;;;;;;10.03;76.79;99710.91;5074326;28;20099;-63
2023/04/12 06:24:02;;;;;;;5.15;4.68;;;;;;;10.04;76.59;99705.06;5079985;28;20032;-63
2023/04/12 06:26:29;;;;;;;6.93;5.75;;;;;;;10.03;76.79;99699.81;5078036;28;20467;-63
2023/04/12 06:28:54;;;;;;;7.72;5.90;;;;;;;10.06;76.78;99705.63;5071693;28;20066;-64
2023/04/12 06:31:20;;;;;;;6.68;5.20;;;;;;;10.13;76.26;99701.72;5082392;28;20024;-62
2023/04/12 06:33:46;;;;;;;13.68;10.82;;;;;;;10.14;76.61;99695.94;5083851;28;20480;-63
2023/04/12 06:36:13;;;;;;;6.85;6.15;;;;;;;10.16;76.39;99704.78;5088437;28;20053;-61
2023/04/12 06:38:38;;;;;;;12.50;11.48;;;;;;;10.15;77.11;99702.31;5075173;28;20089;-61
2023/04/12 06:41:04;;;;;;;4.78;3.20;;;;;;;10.13;77.08;99699.78;5088515;28;20056;-62
2023/04/12 06:43:30;;;;;;;5.32;2.50;;;;;;;10.14;76.74;99695.06;5072492;28;20028;-63
2023/04/12 06:45:55;;;;;;;4.60;2.65;;;;;;;10.18;76.44;99701.72;5073209;28;20048;-62
2023/04/12 06:48:21;;;;;;;4.15;2.60;;;;;;;10.21;76.70;99701.16;5076590;28;20540;-62
2023/04/12 06:50:46;;;;;;;7.28;3.40;;;;;;;10.20;76.57;99711.44;5079824;28;20055;-62
2023/04/12 06:53:14;;;;;;;3.72;3.03;;;;;;;10.23;76.66;99710.06;5077844;28;20028;-62
2023/04/12 06:55:40;;;;;;;3.28;2.45;;;;;;;10.21;77.05;99702.00;5087406;28;20024;-63
2023/04/12 06:58:05;;;;;;;3.30;2.50;;;;;;;10.26;77.16;99698.44;5091994;28;20058;-63
2023/04/12 07:00:31;;;;;;;3.47;2.47;;;;;;;10.26;77.31;99710.38;5087984;28;20017;-62
2023/04/12 07:02:56;;;;;;;4.72;2.30;;;;;;;10.29;76.86;99708.94;5077705;28;20020;-62
2023/04/12 07:05:22;;;;;;;4.18;2.97;;;;;;;10.31;77.09;99709.53;5091550;28;20033;-62
2023/04/12 07:07:47;;;;;;;3.80;3.05;;;;;;;10.32;77.05;99705.63;5080635;28;20024;-63
2023/04/12 07:10:12;;;;;;;4.60;2.63;;;;;;;10.35;77.13;99710.63;5074636;28;20399;-62
2023/04/12 07:12:41;;;;;;;7.20;2.70;;;;;;;10.35;76.57;99707.84;5075334;28;20049;-61
2023/04/12 07:15:07;;;;;;;7.15;2.38;;;;;;;10.35;77.15;99705.06;5074558;28;20048;-62
2023/04/12 07:17:32;;;;;;;2.63;2.40;;;;;;;10.37;76.87;99705.59;5085858;28;20071;-61
2023/04/12 07:19:58;;;;;;;4.47;2.80;;;;;;;10.40;76.79;99710.59;5074122;28;20078;-62
2023/04/12 07:22:23;;;;;;;4.38;2.50;;;;;;;10.43;76.79;99701.72;5073575;28;20039;-61
2023/04/12 07:24:49;;;;;;;5.18;2.80;;;;;;;10.38;77.02;99703.69;5082276;28;20020;-61
2023/04/12 07:27:15;;;;;;;4.35;2.88;;;;;;;10.41;76.68;99701.16;5090194;28;20463;-61
2023/04/12 07:29:40;;;;;;;7.55;3.15;;;;;;;10.42;76.57;99711.19;5089279;28;20081;-61
2023/04/12 07:32:06;;;;;;;4.55;2.65;;;;;;;10.45;76.54;99710.63;5091340;28;20049;-59
2023/04/12 07:34:32;;;;;;;5.60;2.90;;;;;;;10.45;76.84;99707.00;5090950;28;20031;-61
2023/04/12 07:36:59;;;;;;;5.18;2.60;;;;;;;10.49;76.68;99708.09;5083406;28;20411;-58
2023/04/12 07:39:25;;;;;;;4.65;2.80;;;;;;;10.50;76.79;99696.72;5078165;28;20104;-60
2023/04/12 07:41:50;;;;;;;5.93;2.72;;;;;;;10.45;76.26;99688.44;5070918;28;20058;-62
2023/04/12 07:44:15;;;;;;;7.82;3.03;;;;;;;10.51;76.17;99703.94;5071608;28;20111;-62
2023/04/12 07:46:41;;;;;;;7.32;3.10;;;;;;;10.52;76.65;99693.66;5071507;28;20083;-62
2023/04/12 07:49:09;;;;;;;4.88;2.63;;;;;;;10.55;76.58;99688.38;5071005;28;20476;-62
2023/04/12 07:51:34;;;;;;;8.63;2.78;;;;;;;10.56;76.50;99681.72;5070782;28;20108;-62
2023/04/12 07:53:59;;;;;;;5.32;2.80;;;;;;;10.59;76.47;99682.28;5070290;28;20128;-62
2023/04/12 07:56:25;;;;;;;5.25;3.20;;;;;;;10.59;76.83;99685.06;5089306;28;20031;-62
2023/04/12 07:58:50;;;;;;;6.22;2.90;;;;;;;10.60;76.62;99689.47;5091599;28;20024;-64
2023/04/12 08:01:15;;;;;;;6.68;2.78;;;;;;;10.59;76.51;99691.44;5090910;28;20035;-61
2023/04/12 08:03:41;;;;;;;5.97;3.03;;;;;;;10.62;76.45;99693.66;5089748;28;20032;-62
2023/04/12 08:06:06;;;;;;;9.23;3.38;;;;;;;10.63;76.46;99686.16;5091125;28;20080;-62
2023/04/12 08:08:32;;;;;;;8.70;3.22;;;;;;;10.61;76.15;99689.22;5090003;28;20024;-61
2023/04/12 08:10:57;;;;;;;8.55;4.05;;;;;;;10.60;76.71;99695.84;5069034;28;20441;-62
2023/04/12 08:13:22;;;;;;;7.18;3.65;;;;;;;10.65;76.23;99701.41;5089666;28;20059;-62
2023/04/12 08:15:48;;;;;;;5.57;3.38;;;;;;;10.66;76.23;99708.63;5090925;28;20023;-61
2023/04/12 08:18:13;;;;;;;6.32;3.15;;;;;;;10.66;75.35;99714.16;5090213;28;20035;-61
2023/04/12 08:20:43;;;;;;;7.00;3.15;;;;;;;10.64;75.05;99715.56;5090278;28;20463;-62
2023/04/12 08:23:09;;;;;;;5.45;3.28;;;;;;;10.61;75.26;99705.88;5090598;28;20455;-62
2023/04/12 08:25:35;;;;;;;5.95;3.38;;;;;;;10.59;75.83;99701.69;5090456;28;20028;-62
2023/04/12 08:28:00;;;;;;;5.90;3.88;;;;;;;10.58;75.78;99709.19;5088327;28;20081;-62
2023/04/12 08:30:26;;;;;;;5.45;3.50;;;;;;;10.63;75.54;99708.34;5075523;28;20028;-61
2023/04/12 08:32:52;;;;;;;6.05;3.10;;;;;;;10.62;75.62;99701.16;5069877;28;20484;-62
2023/04/12 08:35:18;;;;;;;6.55;3.58;;;;;;;10.67;75.72;99707.50;5070732;28;20074;-62
2023/04/12 08:37:43;;;;;;;8.60;3.88;;;;;;;10.70;76.34;99708.88;5070385;28;20028;-61
2023/04/12 08:40:09;;;;;;;6.63;3.78;;;;;;;10.75;75.92;99711.63;5069225;28;20029;-61
2023/04/12 08:42:37;;;;;;;7.32;4.18;;;;;;;10.78;76.14;99697.22;5070606;28;20057;-61
2023/04/12 08:45:05;;;;;;;8.70;4.05;;;;;;;10.79;76.33;99688.59;5068797;28;20450;-62
2023/04/12 08:47:32;;;;;;;11.02;4.63;;;;;;;10.84;75.59;99686.91;5083159;28;20494;-62
2023/04/12 08:49:59;;;;;;;9.88;4.80;;;;;;;10.93;76.47;99686.06;5090532;28;20028;-62
2023/04/12 08:52:25;;;;;;;7.15;4.47;;;;;;;11.05;76.70;99686.53;5090692;28;20020;-61
2023/04/12 08:54:51;;;;;;;7.70;4.63;;;;;;;11.16;76.56;99694.81;5072365;28;20480;-61
2023/04/12 08:57:17;;;;;;;10.70;5.57;;;;;;;11.29;77.09;99694.22;5070304;28;20093;-61
2023/04/12 08:59:43;;;;;;;15.40;6.50;;;;;;;11.37;76.70;99696.38;5069321;28;20036;-62
2023/04/12 09:02:08;;;;;;;11.48;6.95;;;;;;;11.42;76.23;99692.72;5070164;28;20384;-61
2023/04/12 09:04:46;;;;;;;13.05;6.38;;;;;;;11.45;76.05;99687.44;5070509;28;20029;-61
2023/04/12 09:07:11;;;;;;;14.10;6.80;;;;;;;11.53;76.15;99695.16;5069253;28;20063;-62
2023/04/12 09:09:42;;;;;;;11.55;6.03;;;;;;;11.57;75.02;99687.09;5070951;28;20060;-62
2023/04/12 09:12:08;;;;;;;15.02;6.28;;;;;;;11.57;74.43;99681.53;5072103;28;20131;-62
2023/04/12 09:14:33;;;;;;;14.90;5.97;;;;;;;11.54;75.16;99674.59;5078994;28;20479;-62
2023/04/12 09:16:59;;;;;;;14.55;6.45;;;;;;;11.54;73.76;99668.19;5079518;28;20028;-62
2023/04/12 09:19:35;;;;;;;15.27;6.68;;;;;;;11.57;73.88;99672.38;5079089;28;20482;-61
2023/04/12 09:22:00;;;;;;;15.18;7.85;;;;;;;11.57;74.20;99672.38;5070763;28;20101;-62
2023/04/12 09:24:26;;;;;;;16.83;7.90;;;;;;;11.62;74.38;99670.38;5082888;28;20364;-62
2023/04/12 09:27:05;;;;;;;13.50;6.80;;;;;;;11.76;75.04;99671.38;5090513;28;20107;-62
2023/04/12 09:29:32;;;;;;;17.10;6.78;;;;;;;11.97;75.47;99665.69;5089484;28;20459;-62
2023/04/12 09:32:03;;;;;;;17.88;6.82;;;;;;;12.14;74.65;99657.72;5089787;28;20035;-62
2023/04/12 09:34:30;;;;;;;15.07;7.22;;;;;;;12.26;74.49;99662.88;5087817;28;20024;-62
2023/04/12 09:36:55;;;;;;;19.50;7.55;;;;;;;12.27;72.96;99661.78;5088601;28;20036;-62
2023/04/12 09:39:33;;;;;;;17.92;6.28;;;;;;;12.30;72.76;99669.56;5081278;28;20029;-62
2023/04/12 09:42:10;;;;;;;17.05;5.78;;;;;;;12.27;71.22;99668.19;5073489;28;20029;-62
2023/04/12 09:44:36;;;;;;;19.08;6.30;;;;;;;12.23;70.84;99664.31;5089826;28;20099;-62
2023/04/12 09:47:03;;;;;;;19.85;6.05;;;;;;;12.22;70.61;99665.47;5079671;28;20036;-62
2023/04/12 09:49:39;;;;;;;24.05;6.35;;;;;;;12.23;70.98;99657.94;5089041;28;20024;-61
2023/04/12 09:52:10;;;;;;;18.20;5.72;;;;;;;12.19;68.56;99656.88;5089747;28;20020;-62
2023/04/12 09:54:43;;;;;;;16.55;5.03;;;;;;;12.16;69.40;99660.22;5089919;28;20016;-62
2023/04/12 09:57:10;;;;;;;14.80;5.00;;;;;;;12.16;69.33;99657.44;5086397;28;20146;-62
2023/04/12 09:59:40;;;;;;;22.98;4.90;;;;;;;12.16;68.14;99649.09;5085562;28;20024;-62
2023/04/12 10:02:12;;;;;;;14.88;4.90;;;;;;;12.13;68.11;99658.84;5078787;28;20073;-62
2023/04/12 10:04:39;;;;;;;15.25;5.13;;;;;;;12.13;67.63;99646.91;5068710;28;20388;-62
2023/04/12 10:07:05;;;;;;;19.00;5.28;;;;;;;12.08;67.71;99638.59;5068961;28;20024;-62
2023/04/12 10:09:32;;;;;;;21.48;5.78;;;;;;;12.10;68.98;99653.03;5069467;28;20035;-62
2023/04/12 10:12:00;;;;;;;21.35;6.20;;;;;;;12.06;69.04;99652.78;5063021;28;20053;-62
2023/04/12 10:14:27;;;;;;;24.00;6.35;;;;;;;12.01;67.77;99667.56;5059271;28;20033;-63
2023/04/12 10:16:58;;;;;;;19.20;5.68;;;;;;;12.00;67.94;99668.72;5068966;28;20584;-62
2023/04/12 10:19:25;;;;;;;21.02;5.35;;;;;;;11.97;66.04;99666.50;5063338;28;20029;-62
2023/04/12 10:21:51;;;;;;;15.30;5.10;;;;;;;11.93;66.56;99665.44;5069008;28;20109;-62
2023/04/12 10:24:16;;;;;;;14.55;5.22;;;;;;;11.91;65.89;99664.91;5067881;28;20142;-62
2023/04/12 10:26:45;;;;;;;15.55;4.07;;;;;;;11.92;65.69;99658.22;5059978;28;20025;-62
2023/04/12 10:29:26;;;;;;;16.42;5.30;;;;;;;11.92;66.60;99658.22;5052544;28;20114;-62
2023/04/12 10:31:54;;;;;;;19.65;5.10;;;;;;;11.93;66.33;99671.00;5051864;28;20108;-62
2023/04/12 10:34:30;;;;;;;20.98;4.47;;;;;;;11.92;66.10;99663.78;5052971;28;20492;-62
2023/04/12 10:37:00;;;;;;;16.48;5.03;;;;;;;11.87;64.91;99661.03;5054864;28;20032;-62
2023/04/12 10:39:41;;;;;;;15.23;4.57;;;;;;;11.87;64.68;99683.28;5051343;28;20547;-62
2023/04/12 10:42:22;;;;;;;15.60;4.57;;;;;;;11.88;64.37;99678.56;5052146;28;20464;-62
2023/04/12 10:44:49;;;;;;;19.23;3.70;;;;;;;11.78;61.50;99673.84;5052233;28;20350;-62
2023/04/12 10:47:15;;;;;;;16.98;3.40;;;;;;;11.78;61.72;99691.38;5051631;28;20476;-62
2023/04/12 10:50:03;;;;;;;17.30;3.53;;;;;;;11.73;63.35;99693.38;5051853;28;20028;-61
2023/04/12 10:52:28;;;;;;;13.07;3.40;;;;;;;11.69;64.85;99695.06;5051837;28;20032;-62
2023/04/12 10:54:53;;;;;;;21.00;4.13;;;;;;;11.65;65.22;99682.88;5051982;28;20443;-62
2023/04/12 10:57:42;;;;;;;21.75;5.53;;;;;;;11.61;65.47;99679.00;5066008;28;20511;-62
2023/04/12 11:00:07;;;;;;;19.23;4.60;;;;;;;11.57;66.23;99686.25;5068236;28;20115;-62
2023/04/12 11:02:35;;;;;;;16.92;4.30;;;;;;;11.56;67.49;99688.22;5061642;28;20117;-62
2023/04/12 11:05:08;;;;;;;19.77;4.88;;;;;;;11.55;67.77;99698.50;5051524;28;20029;-62
2023/04/12 11:07:41;;;;;;;19.20;5.00;;;;;;;11.58;68.47;99690.69;5053035;28;20045;-62
2023/04/12 11:10:14;;;;;;;17.45;5.70;;;;;;;11.61;68.98;99692.91;5053563;28;20674;-62
2023/04/12 11:12:41;;;;;;;23.67;6.32;;;;;;;11.59;68.68;99693.16;5080107;28;20052;-63
2023/04/12 11:15:11;;;;;;;19.15;6.10;;;;;;;11.59;69.28;99698.72;5091129;28;20100;-63
2023/04/12 11:17:36;;;;;;;18.65;6.10;;;;;;;11.63;69.92;99704.53;5084492;28;21316;-62
2023/04/12 11:20:03;;;;;;;18.65;6.20;;;;;;;11.62;70.02;99703.72;5074960;28;20645;-62
2023/04/12 11:22:31;;;;;;;21.05;6.72;;;;;;;11.63;71.02;99707.31;5063959;28;20078;-62
2023/04/12 11:25:01;;;;;;;17.63;5.95;;;;;;;11.62;70.59;99708.44;5057717;28;20032;-62
2023/04/12 11:27:29;;;;;;;20.95;6.32;;;;;;;11.61;70.26;99696.50;5056696;28;20024;-60
2023/04/12 11:29:56;;;;;;;20.00;5.47;;;;;;;11.59;71.09;99692.34;5068745;28;20123;-64
2023/04/12 11:32:25;;;;;;;18.60;6.88;;;;;;;11.58;71.84;99685.13;5073759;28;20352;-63